Time;durP1;ratioP1;P1;durP2;ratioP2;P2;SDS_P1;SDS_P2;PMS_P1;PMS_P2;Temp;Humidity;BMP_temperature;BMP_pressure;BME280_temperature;BME280_humidity;BME280_pressure;Samples;Min_cycle;Max_cycle;Signal;HPM_P1;HPM_P2
2023/05/14 00:00:07;;;;;;;10.43;8.13;;;;;;;11.39;77.36;96125.41;4989523;28;20176;-71
2023/05/14 00:02:32;;;;;;;8.33;7.53;;;;;;;11.25;78.42;96117.38;4990502;28;20578;-71
2023/05/14 00:04:58;;;;;;;8.50;7.60;;;;;;;11.31;78.02;96119.69;4989961;28;20420;-69
2023/05/14 00:07:29;;;;;;;9.13;8.23;;;;;;;11.42;77.83;96119.97;4988802;28;20185;-70
2023/05/14 00:09:58;;;;;;;12.70;8.00;;;;;;;11.39;78.00;96114.91;4990329;28;20204;-71
2023/05/14 00:12:23;;;;;;;12.43;7.83;;;;;;;11.54;77.24;96105.34;4987259;28;20854;-70
2023/05/14 00:14:49;;;;;;;12.33;8.33;;;;;;;11.65;76.60;96103.03;4988107;28;20439;-70
2023/05/14 00:17:14;;;;;;;10.40;7.00;;;;;;;11.55;77.47;96101.78;4988537;28;20290;-70
2023/05/14 00:19:40;;;;;;;9.03;7.83;;;;;;;11.43;77.71;96103.28;4989826;28;20319;-71
2023/05/14 00:22:09;;;;;;;10.50;8.40;;;;;;;11.61;77.23;96098.84;4990197;28;20199;-70
2023/05/14 00:24:35;;;;;;;12.23;8.10;;;;;;;11.52;78.33;96102.78;4990838;28;20420;-71
2023/05/14 00:27:02;;;;;;;8.70;7.70;;;;;;;11.57;77.52;96094.69;4990172;28;20431;-70
2023/05/14 00:29:28;;;;;;;9.10;8.20;;;;;;;11.70;76.99;96101.00;4990968;28;20412;-70
2023/05/14 00:31:53;;;;;;;9.40;8.47;;;;;;;11.37;78.47;96093.09;4990650;28;20446;-71
2023/05/14 00:34:19;;;;;;;9.87;8.37;;;;;;;11.69;77.12;96095.81;4990768;28;20204;-71
2023/05/14 00:36:44;;;;;;;8.87;7.97;;;;;;;11.56;77.34;96085.94;4989437;28;20201;-71
2023/05/14 00:39:10;;;;;;;10.10;8.50;;;;;;;11.53;78.05;96090.53;4990711;28;20212;-71
2023/05/14 00:41:35;;;;;;;9.60;8.00;;;;;;;11.30;78.94;96089.09;4990177;28;20257;-72
2023/05/14 00:44:01;;;;;;;10.07;8.17;;;;;;;11.34;78.53;96093.25;4989957;28;20177;-70
2023/05/14 00:46:26;;;;;;;9.70;8.70;;;;;;;11.27;78.74;96090.09;4988957;28;20181;-72
2023/05/14 00:48:52;;;;;;;13.33;9.00;;;;;;;11.28;78.74;96096.19;4990744;28;20208;-70
2023/05/14 00:51:18;;;;;;;10.17;9.10;;;;;;;11.20;78.92;96089.56;4990024;28;20211;-71
2023/05/14 00:53:45;;;;;;;8.50;7.70;;;;;;;11.21;78.99;96091.25;4989575;28;20459;-71
2023/05/14 00:56:11;;;;;;;9.67;8.67;;;;;;;11.37;78.30;96087.84;4989226;28;20448;-70
2023/05/14 00:58:36;;;;;;;10.57;9.47;;;;;;;11.20;78.79;96083.47;4989608;28;20474;-70
2023/05/14 01:01:02;;;;;;;14.43;9.03;;;;;;;11.17;78.77;96081.84;4989002;28;20420;-71
2023/05/14 01:03:32;;;;;;;12.83;9.10;;;;;;;11.14;78.84;96081.16;4988673;28;20482;-70
2023/05/14 01:06:14;;;;;;;9.80;8.80;;;;;;;11.09;79.07;96080.53;5018396;28;20489;-70
2023/05/14 01:09:02;;;;;;;10.10;8.70;;;;;;;11.33;78.26;96086.31;4988422;28;21102;-70
2023/05/14 01:11:45;;;;;;;9.80;8.13;;;;;;;11.14;79.27;96087.25;4986890;28;20432;-71
2023/05/14 01:14:16;;;;;;;10.10;9.03;;;;;;;11.14;79.62;96091.66;4988233;28;20419;-71
2023/05/14 01:16:44;;;;;;;11.83;8.47;;;;;;;11.14;79.06;96087.25;4987114;28;20463;-70
2023/05/14 01:19:38;;;;;;;9.40;8.50;;;;;;;11.30;78.95;96083.84;4988474;28;20412;-70
2023/05/14 01:22:03;;;;;;;14.70;10.77;;;;;;;11.14;79.63;96087.25;4988705;28;20428;-70
2023/05/14 01:24:29;;;;;;;9.40;8.50;;;;;;;11.01;79.88;96088.81;4988236;28;20420;-70
2023/05/14 01:27:23;;;;;;;9.20;8.30;;;;;;;10.98;80.49;96086.31;4987646;28;20177;-71
2023/05/14 01:29:57;;;;;;;10.67;9.43;;;;;;;11.04;80.18;96080.78;4987949;28;20917;-71
2023/05/14 01:32:24;;;;;;;9.87;8.97;;;;;;;11.23;79.07;96084.16;4988897;28;20436;-71
2023/05/14 01:34:50;;;;;;;10.03;9.03;;;;;;;11.18;79.12;96080.91;4988799;28;20553;-71
2023/05/14 01:37:16;;;;;;;10.90;9.77;;;;;;;11.18;79.50;96086.16;4987961;28;20523;-71
2023/05/14 01:39:43;;;;;;;9.83;8.83;;;;;;;11.22;79.22;96090.34;4988956;28;20455;-71
2023/05/14 01:42:09;;;;;;;10.10;9.10;;;;;;;11.33;79.08;96092.41;4990669;28;20443;-71
2023/05/14 01:44:41;;;;;;;9.73;8.73;;;;;;;11.25;79.65;96085.88;4996379;28;20416;-71
2023/05/14 01:47:06;;;;;;;10.17;9.17;;;;;;;11.43;78.83;96093.63;5005434;28;20416;-72
2023/05/14 01:49:31;;;;;;;11.63;9.90;;;;;;;11.33;79.23;96083.66;5005587;28;20411;-71
2023/05/14 01:51:57;;;;;;;10.03;8.93;;;;;;;11.28;78.89;96086.53;5001096;28;20207;-72
2023/05/14 01:54:22;;;;;;;10.73;9.23;;;;;;;11.32;78.69;96085.47;4993255;28;20235;-71
2023/05/14 01:56:48;;;;;;;10.40;9.40;;;;;;;11.35;78.15;96087.06;4991216;28;20208;-70
2023/05/14 01:59:13;;;;;;;10.30;9.30;;;;;;;11.27;78.77;96082.22;4992221;28;20268;-70
2023/05/14 02:01:39;;;;;;;10.53;9.40;;;;;;;11.23;78.91;96076.25;4991829;28;20180;-71
2023/05/14 02:04:04;;;;;;;11.73;8.43;;;;;;;11.25;79.26;96076.19;4990721;28;20181;-71
2023/05/14 02:06:31;;;;;;;9.60;8.50;;;;;;;11.13;79.50;96076.84;5006050;28;20176;-71
2023/05/14 02:08:56;;;;;;;10.87;9.77;;;;;;;11.04;79.54;96070.25;4991991;28;20169;-70
2023/05/14 02:11:21;;;;;;;11.33;9.47;;;;;;;11.11;79.71;96078.69;4991918;28;20418;-71
2023/05/14 02:13:47;;;;;;;11.13;9.13;;;;;;;11.19;78.65;96076.50;4991306;28;20316;-69
2023/05/14 02:16:12;;;;;;;12.37;11.07;;;;;;;11.16;79.54;96080.13;4990751;28;20196;-71
2023/05/14 02:18:38;;;;;;;10.30;9.20;;;;;;;11.15;79.39;96080.19;5016753;28;20185;-70
2023/05/14 02:21:03;;;;;;;11.03;9.93;;;;;;;11.18;79.18;96074.81;4984055;28;20268;-70
2023/05/14 02:23:29;;;;;;;11.97;9.93;;;;;;;11.14;79.24;96076.75;4990361;28;20290;-70
2023/05/14 02:25:54;;;;;;;11.27;10.13;;;;;;;11.11;79.72;96076.06;4990788;28;20259;-71
2023/05/14 02:28:19;;;;;;;10.83;9.73;;;;;;;11.17;79.46;96075.72;4991719;28;20184;-69
2023/05/14 02:30:45;;;;;;;11.47;10.27;;;;;;;11.12;79.16;96069.88;4991397;28;20183;-70
2023/05/14 02:33:10;;;;;;;11.27;10.10;;;;;;;11.15;79.73;96073.19;4992057;28;20207;-70
2023/05/14 02:35:36;;;;;;;12.37;11.17;;;;;;;11.04;79.65;96066.81;4992101;28;20180;-70
2023/05/14 02:38:01;;;;;;;11.93;10.80;;;;;;;11.02;80.09;96069.50;4992132;28;20177;-70
2023/05/14 02:40:27;;;;;;;11.93;9.53;;;;;;;11.13;79.96;96069.81;4991981;28;20188;-71
2023/05/14 02:42:52;;;;;;;19.07;11.10;;;;;;;11.21;79.68;96067.63;4991688;28;20291;-71
2023/05/14 02:45:18;;;;;;;11.80;10.47;;;;;;;11.25;79.77;96070.09;4991569;28;20241;-70
2023/05/14 02:47:43;;;;;;;11.90;10.40;;;;;;;11.27;78.97;96070.84;4991602;28;20585;-70
2023/05/14 02:50:09;;;;;;;14.20;11.73;;;;;;;11.15;80.01;96067.94;4991883;28;20196;-71
2023/05/14 02:52:35;;;;;;;13.30;12.00;;;;;;;11.14;80.34;96066.22;4992198;28;20212;-71
2023/05/14 02:55:01;;;;;;;12.83;11.33;;;;;;;11.26;79.46;96056.03;4990410;28;20756;-70
2023/05/14 02:57:26;;;;;;;14.33;12.70;;;;;;;11.29;79.57;96064.63;4991159;28;20205;-70
2023/05/14 02:59:51;;;;;;;13.97;10.73;;;;;;;11.29;79.76;96061.97;4990869;28;20412;-71
2023/05/14 03:02:17;;;;;;;13.00;10.03;;;;;;;11.09;80.20;96059.53;4991816;28;20204;-71
2023/05/14 03:04:42;;;;;;;12.37;10.90;;;;;;;10.96;80.43;96060.16;4991683;28;20176;-70
2023/05/14 03:07:08;;;;;;;11.90;10.70;;;;;;;10.96;80.59;96054.91;4990835;28;20177;-71
2023/05/14 03:09:33;;;;;;;12.23;11.03;;;;;;;11.12;79.56;96059.38;4991374;28;20177;-71
2023/05/14 03:11:59;;;;;;;11.60;10.50;;;;;;;11.18;79.56;96059.06;4990615;28;20201;-71
2023/05/14 03:14:24;;;;;;;11.97;10.77;;;;;;;11.22;79.32;96056.19;4990368;28;20716;-72
2023/05/14 03:16:49;;;;;;;11.00;9.90;;;;;;;11.21;78.87;96053.63;4988460;28;20204;-71
2023/05/14 03:19:15;;;;;;;14.83;10.87;;;;;;;11.10;79.71;96058.59;4990197;28;20268;-71
2023/05/14 03:21:40;;;;;;;32.57;13.57;;;;;;;11.17;79.09;96058.22;4989834;28;20180;-70
2023/05/14 03:24:06;;;;;;;14.10;11.93;;;;;;;11.20;79.03;96054.56;4990305;28;20257;-71
2023/05/14 03:26:31;;;;;;;13.40;10.33;;;;;;;11.11;79.72;96050.66;4989390;28;20211;-69
2023/05/14 03:28:57;;;;;;;14.03;12.60;;;;;;;11.18;79.41;96059.06;4991058;28;20277;-70
2023/05/14 03:31:22;;;;;;;13.53;11.50;;;;;;;10.90;80.73;96054.38;4991050;28;20180;-71
2023/05/14 03:33:47;;;;;;;15.80;13.53;;;;;;;11.01;80.46;96055.53;4990767;28;20197;-71
2023/05/14 03:36:13;;;;;;;14.60;11.97;;;;;;;11.13;79.66;96059.28;4990017;28;20835;-71
2023/05/14 03:38:38;;;;;;;13.40;11.30;;;;;;;11.10;78.69;96058.59;4990390;28;20549;-71
2023/05/14 03:41:04;;;;;;;14.30;12.10;;;;;;;11.11;79.44;96055.06;4989902;28;20313;-70
2023/05/14 03:43:29;;;;;;;13.00;11.60;;;;;;;11.05;79.44;96053.56;4990428;28;20193;-70
2023/05/14 03:45:55;;;;;;;12.80;10.90;;;;;;;11.09;79.04;96056.91;4989344;28;20256;-71
2023/05/14 03:48:20;;;;;;;13.77;11.30;;;;;;;11.09;78.84;96056.91;4990611;28;20653;-70
2023/05/14 03:50:46;;;;;;;13.60;12.20;;;;;;;11.26;78.15;96048.16;4990274;28;20251;-70
2023/05/14 03:53:11;;;;;;;14.40;12.73;;;;;;;11.21;78.23;96056.25;4990804;28;20272;-71
2023/05/14 03:55:36;;;;;;;16.83;15.10;;;;;;;11.01;79.28;96057.31;4989243;28;20171;-70
2023/05/14 03:58:02;;;;;;;15.80;11.83;;;;;;;11.17;78.56;96049.47;4989988;28;20232;-71
2023/05/14 04:00:28;;;;;;;16.60;12.80;;;;;;;11.16;78.56;96056.50;4990137;28;20184;-70
2023/05/14 04:02:53;;;;;;;16.63;12.40;;;;;;;11.15;79.04;96049.56;4990469;28;20263;-71
2023/05/14 04:05:19;;;;;;;24.80;13.40;;;;;;;11.19;78.78;96043.19;4988854;28;20419;-71
2023/05/14 04:07:45;;;;;;;23.83;14.13;;;;;;;11.33;78.20;96041.63;5004968;28;20251;-71
2023/05/14 04:10:11;;;;;;;17.43;12.60;;;;;;;11.32;78.14;96040.81;4990464;28;20177;-70
2023/05/14 04:12:37;;;;;;;24.83;13.63;;;;;;;11.34;77.79;96040.69;4991199;28;20185;-70
2023/05/14 04:15:04;;;;;;;13.60;12.07;;;;;;;11.40;77.87;96043.00;4990186;28;20418;-70
2023/05/14 04:17:29;;;;;;;20.07;14.17;;;;;;;11.33;77.45;96046.91;4989814;28;20303;-70
2023/05/14 04:19:54;;;;;;;30.70;14.60;;;;;;;11.49;77.44;96037.28;4990354;28;20507;-70
2023/05/14 04:22:20;;;;;;;14.23;12.70;;;;;;;11.43;77.47;96038.47;4990104;28;20197;-71
2023/05/14 04:24:45;;;;;;;14.80;12.40;;;;;;;11.37;78.15;96037.94;4990196;28;20177;-70
2023/05/14 04:27:18;;;;;;;16.60;12.70;;;;;;;11.53;77.04;96035.34;4987921;28;20179;-71
2023/05/14 04:29:43;;;;;;;14.20;12.70;;;;;;;11.44;78.01;96040.16;4988879;28;20195;-71
2023/05/14 04:32:09;;;;;;;18.03;11.80;;;;;;;11.35;77.73;96035.38;4989160;28;20435;-70
2023/05/14 04:34:35;;;;;;;26.47;14.70;;;;;;;11.44;77.63;96042.78;4990073;28;20192;-71
2023/05/14 04:37:01;;;;;;;23.63;14.77;;;;;;;11.49;76.86;96042.53;4988436;28;20648;-71
2023/05/14 04:39:27;;;;;;;17.83;12.00;;;;;;;11.43;77.28;96043.72;4987643;28;20173;-70
2023/05/14 04:41:52;;;;;;;16.33;11.87;;;;;;;11.37;76.94;96046.66;4988364;28;20423;-70
2023/05/14 04:44:21;;;;;;;18.57;13.60;;;;;;;11.34;77.42;96038.94;4988248;28;20177;-70
2023/05/14 04:46:46;;;;;;;16.17;12.57;;;;;;;11.49;77.14;96045.16;4986576;28;20172;-71
2023/05/14 04:49:12;;;;;;;15.10;12.60;;;;;;;11.40;76.88;96035.13;4988101;28;20419;-70
2023/05/14 04:51:37;;;;;;;21.77;14.60;;;;;;;11.32;76.98;96039.97;4988118;28;20176;-71
2023/05/14 04:54:03;;;;;;;13.50;11.40;;;;;;;11.19;77.53;96043.19;4988297;28;20179;-71
2023/05/14 04:56:28;;;;;;;15.30;11.93;;;;;;;11.14;78.02;96039.97;4987043;28;20200;-70
2023/05/14 04:58:53;;;;;;;12.90;10.90;;;;;;;10.91;78.52;96041.16;4988224;28;20192;-72
2023/05/14 05:01:19;;;;;;;17.50;13.27;;;;;;;11.09;77.46;96038.53;4987486;28;20703;-70
2023/05/14 05:03:45;;;;;;;14.80;12.63;;;;;;;11.06;77.64;96042.16;4987849;28;20205;-70
2023/05/14 05:06:10;;;;;;;17.60;13.30;;;;;;;11.06;78.19;96036.91;4986833;28;20482;-71
2023/05/14 05:08:36;;;;;;;13.67;12.33;;;;;;;11.03;78.20;96050.16;4988164;28;20181;-71
2023/05/14 05:11:02;;;;;;;33.63;13.63;;;;;;;11.09;77.59;96049.03;4987750;28;20219;-70
2023/05/14 05:13:27;;;;;;;29.60;12.93;;;;;;;10.99;77.75;96049.50;4987832;28;20201;-72
2023/05/14 05:15:52;;;;;;;17.80;11.93;;;;;;;10.99;77.57;96043.41;4985080;28;20200;-70
2023/05/14 05:18:18;;;;;;;19.10;12.20;;;;;;;11.07;77.26;96043.84;4992078;28;20626;-71
2023/05/14 05:20:43;;;;;;;37.80;14.00;;;;;;;11.01;78.28;96052.06;5008412;28;20184;-71
2023/05/14 05:23:09;;;;;;;15.97;12.93;;;;;;;11.06;77.91;96043.94;5010048;28;20195;-71
2023/05/14 05:25:34;;;;;;;13.70;12.30;;;;;;;11.34;77.11;96035.44;5003203;28;20177;-71
2023/05/14 05:27:59;;;;;;;17.13;10.60;;;;;;;11.75;77.94;96042.91;5001480;28;20817;-72
2023/05/14 05:30:25;;;;;;;13.70;11.33;;;;;;;11.66;74.72;96039.00;4990831;28;20187;-69
2023/05/14 05:32:50;;;;;;;17.93;13.03;;;;;;;11.63;75.72;96036.53;4980824;28;20207;-71
2023/05/14 05:35:16;;;;;;;16.80;12.00;;;;;;;11.49;75.94;96042.53;4985918;28;20289;-70
2023/05/14 05:37:41;;;;;;;18.70;11.03;;;;;;;11.59;75.74;96040.25;4989370;28;20224;-69
2023/05/14 05:40:09;;;;;;;17.03;12.30;;;;;;;11.44;75.74;96034.06;4990952;28;20193;-70
2023/05/14 05:42:34;;;;;;;17.03;11.67;;;;;;;11.43;75.64;96037.59;4990505;28;20601;-70
2023/05/14 05:45:01;;;;;;;15.07;11.80;;;;;;;11.74;74.84;96038.56;4991003;28;20454;-70
2023/05/14 05:47:26;;;;;;;12.57;11.23;;;;;;;11.60;75.08;96040.19;4990731;28;20416;-71
2023/05/14 05:49:52;;;;;;;12.83;9.93;;;;;;;11.63;74.96;96044.41;4991377;28;20708;-72
2023/05/14 05:52:18;;;;;;;24.33;12.37;;;;;;;11.45;76.05;96043.63;4989539;28;20213;-70
2023/05/14 05:54:43;;;;;;;26.80;11.40;;;;;;;11.56;75.96;96043.06;4990932;28;20428;-71
2023/05/14 05:57:09;;;;;;;17.70;12.03;;;;;;;11.48;75.46;96040.84;4990421;28;20290;-71
2023/05/14 05:59:35;;;;;;;19.20;11.50;;;;;;;11.58;75.70;96038.56;4991238;28;20172;-71
2023/05/14 06:02:00;;;;;;;16.87;11.83;;;;;;;11.36;76.04;96037.09;4990549;28;20222;-71
2023/05/14 06:04:25;;;;;;;13.30;11.73;;;;;;;11.31;75.99;96048.75;4990951;28;20173;-70
2023/05/14 06:06:51;;;;;;;18.20;13.20;;;;;;;11.33;75.92;96050.38;4990231;28;20172;-69
2023/05/14 06:09:16;;;;;;;13.20;11.90;;;;;;;11.12;76.85;96051.47;4990826;28;20196;-70
2023/05/14 06:11:42;;;;;;;16.30;14.17;;;;;;;11.21;76.91;96051.84;4990885;28;20925;-70
2023/05/14 06:14:07;;;;;;;13.83;12.10;;;;;;;11.13;76.62;96051.41;4991501;28;20187;-69
2023/05/14 06:16:33;;;;;;;15.60;11.70;;;;;;;11.18;76.62;96057.28;4989747;28;20259;-70
2023/05/14 06:18:58;;;;;;;14.03;12.60;;;;;;;11.27;76.40;96055.09;4991017;28;20185;-70
2023/05/14 06:21:23;;;;;;;18.70;13.57;;;;;;;11.34;75.62;96057.34;4990802;28;20578;-70
2023/05/14 06:23:49;;;;;;;14.67;13.00;;;;;;;11.45;75.30;96062.84;4990880;28;20200;-71
2023/05/14 06:26:14;;;;;;;13.37;11.23;;;;;;;11.45;75.42;96056.75;4989660;28;20177;-71
2023/05/14 06:28:40;;;;;;;13.10;11.80;;;;;;;11.38;75.48;96050.97;4982466;28;20300;-70
2023/05/14 06:31:05;;;;;;;13.43;11.70;;;;;;;11.36;75.82;96054.59;4986132;28;20182;-71
2023/05/14 06:33:31;;;;;;;15.57;12.87;;;;;;;11.25;76.12;96059.59;4986229;28;20278;-70
2023/05/14 06:36:04;;;;;;;18.70;14.93;;;;;;;11.33;76.40;96057.41;4980387;28;20213;-71
2023/05/14 06:38:29;;;;;;;14.70;12.43;;;;;;;11.20;75.67;96054.56;4980225;28;20195;-70
2023/05/14 06:40:54;;;;;;;16.87;13.07;;;;;;;11.34;75.10;96051.22;4978026;28;21281;-71
2023/05/14 06:43:20;;;;;;;15.43;11.30;;;;;;;11.32;75.50;96053.94;4980855;28;20274;-70
2023/05/14 06:45:49;;;;;;;23.20;13.90;;;;;;;11.51;74.10;96055.59;4982633;28;20268;-71
2023/05/14 06:48:17;;;;;;;16.00;12.53;;;;;;;11.42;74.56;96054.28;4982431;28;20192;-71
2023/05/14 06:50:43;;;;;;;16.50;12.80;;;;;;;11.42;75.19;96054.28;4977204;28;20448;-71
2023/05/14 06:53:08;;;;;;;15.07;12.83;;;;;;;11.61;74.06;96057.63;4978694;28;20456;-70
2023/05/14 06:55:34;;;;;;;15.10;11.97;;;;;;;11.48;74.50;96051.34;4978328;28;20197;-71
2023/05/14 06:58:05;;;;;;;21.27;12.00;;;;;;;11.65;73.48;96053.06;4982617;28;20216;-71
2023/05/14 07:00:30;;;;;;;15.20;11.13;;;;;;;11.57;73.60;96042.97;4981526;28;21014;-71
2023/05/14 07:02:56;;;;;;;14.33;10.60;;;;;;;11.61;72.99;96052.38;4973444;28;20463;-70
2023/05/14 07:05:21;;;;;;;18.73;12.73;;;;;;;11.66;72.74;96054.75;4974093;28;20260;-70
2023/05/14 07:07:47;;;;;;;12.83;10.87;;;;;;;11.71;72.40;96046.63;4977986;28;20185;-70
2023/05/14 07:10:15;;;;;;;12.53;11.23;;;;;;;11.82;71.98;96044.28;4981657;28;20185;-70
2023/05/14 07:12:41;;;;;;;13.43;11.27;;;;;;;11.93;71.87;96043.72;4986766;28;20216;-70
2023/05/14 07:15:07;;;;;;;13.50;10.17;;;;;;;12.03;71.28;96044.91;4977885;28;20452;-71
2023/05/14 07:17:32;;;;;;;11.27;10.23;;;;;;;11.93;71.59;96048.97;4971581;28;20209;-71
2023/05/14 07:19:58;;;;;;;12.40;11.20;;;;;;;12.00;72.45;96045.94;5006054;28;21038;-70
2023/05/14 07:22:23;;;;;;;12.60;11.33;;;;;;;11.92;72.01;96053.38;4980938;28;20200;-71
2023/05/14 07:24:49;;;;;;;11.57;10.37;;;;;;;11.82;71.54;96046.91;4982434;28;20189;-71
2023/05/14 07:27:15;;;;;;;11.23;9.77;;;;;;;11.42;72.61;96057.75;4984308;28;20561;-70
2023/05/14 07:29:41;;;;;;;14.23;11.10;;;;;;;11.47;73.43;96054.06;4980193;28;20246;-71
2023/05/14 07:32:07;;;;;;;12.20;10.67;;;;;;;11.66;72.63;96049.50;4973355;28;20936;-71
2023/05/14 07:34:32;;;;;;;13.90;10.83;;;;;;;11.64;71.70;96052.22;4977051;28;20211;-71
2023/05/14 07:36:57;;;;;;;12.37;10.53;;;;;;;11.70;71.98;96051.03;4978189;28;20209;-72
2023/05/14 07:39:23;;;;;;;14.40;10.80;;;;;;;11.77;71.56;96056.81;4985142;28;20492;-71
2023/05/14 07:41:49;;;;;;;11.70;10.00;;;;;;;11.75;71.46;96050.81;4981331;28;20262;-71
2023/05/14 07:44:14;;;;;;;12.87;11.50;;;;;;;11.75;71.66;96053.44;4985302;28;20542;-71
2023/05/14 07:46:40;;;;;;;16.50;11.27;;;;;;;11.77;71.21;96056.81;4982487;28;20283;-71
2023/05/14 07:49:05;;;;;;;11.60;9.70;;;;;;;11.68;71.69;96046.81;4981569;28;20662;-71
2023/05/14 07:51:32;;;;;;;18.07;10.20;;;;;;;11.78;70.64;96048.00;4981988;28;20536;-71
2023/05/14 07:53:57;;;;;;;12.20;9.50;;;;;;;11.89;70.13;96050.09;5004273;28;20209;-71
2023/05/14 07:56:23;;;;;;;25.93;10.20;;;;;;;11.88;70.12;96040.47;4990137;28;20484;-71
2023/05/14 07:58:49;;;;;;;13.67;10.50;;;;;;;12.08;70.32;96050.75;4986797;28;20630;-72
2023/05/14 08:01:14;;;;;;;11.00;8.27;;;;;;;12.00;70.10;96048.56;4984755;28;20195;-72
2023/05/14 08:03:40;;;;;;;13.20;8.43;;;;;;;12.08;69.42;96040.25;4982881;28;20471;-71
2023/05/14 08:06:05;;;;;;;10.70;8.77;;;;;;;11.94;69.12;96042.78;4981074;28;20205;-70
2023/05/14 08:08:31;;;;;;;9.43;8.50;;;;;;;11.95;69.13;96045.34;4982395;28;20193;-71
2023/05/14 08:10:56;;;;;;;10.73;7.70;;;;;;;11.71;70.11;96044.00;4969838;28;20177;-71
2023/05/14 08:13:22;;;;;;;8.53;7.63;;;;;;;11.69;70.40;96049.34;4973406;28;20201;-72
2023/05/14 08:15:47;;;;;;;9.30;8.40;;;;;;;11.74;69.41;96041.19;4981763;28;20182;-72
2023/05/14 08:18:13;;;;;;;9.20;7.53;;;;;;;11.73;69.88;96035.09;4981976;28;20181;-70
2023/05/14 08:20:38;;;;;;;9.93;8.10;;;;;;;11.67;70.60;96035.44;4984920;28;20185;-71
2023/05/14 08:23:04;;;;;;;9.20;8.20;;;;;;;11.85;69.44;96039.69;4970926;28;20209;-71
2023/05/14 08:25:29;;;;;;;13.20;8.40;;;;;;;11.97;69.47;96037.34;4979794;28;20184;-71
2023/05/14 08:27:54;;;;;;;9.10;8.20;;;;;;;12.14;68.29;96033.78;4985032;28;20307;-72
2023/05/14 08:30:21;;;;;;;10.73;8.07;;;;;;;12.02;68.36;96035.31;4987834;28;20222;-71
2023/05/14 08:32:46;;;;;;;11.50;9.60;;;;;;;12.02;68.62;96033.56;4988066;28;20328;-72
2023/05/14 08:35:12;;;;;;;9.50;8.47;;;;;;;11.94;69.00;96027.00;4988049;28;20508;-71
2023/05/14 08:37:38;;;;;;;9.97;8.40;;;;;;;11.89;69.55;96031.69;4987040;28;20238;-71
2023/05/14 08:40:03;;;;;;;12.70;9.80;;;;;;;11.79;69.73;96034.78;4987947;28;20200;-71
2023/05/14 08:42:30;;;;;;;10.57;9.47;;;;;;;11.68;70.11;96037.13;4987411;28;20741;-70
2023/05/14 08:45:03;;;;;;;10.40;9.30;;;;;;;11.69;69.58;96033.56;4984482;28;20260;-71
2023/05/14 08:47:29;;;;;;;11.30;9.53;;;;;;;11.49;69.92;96036.44;4980085;28;20576;-71
2023/05/14 08:50:06;;;;;;;18.97;10.93;;;;;;;11.64;71.10;96038.22;4983576;28;20436;-71
2023/05/14 08:52:32;;;;;;;13.27;9.23;;;;;;;11.63;69.96;96040.00;4974263;28;20547;-72
2023/05/14 08:54:59;;;;;;;10.50;9.50;;;;;;;11.61;69.55;96031.34;4980097;28;20440;-71
2023/05/14 08:57:27;;;;;;;11.20;8.90;;;;;;;11.65;70.00;96040.78;4971376;28;20452;-71
2023/05/14 08:59:53;;;;;;;9.10;8.30;;;;;;;11.68;69.86;96031.03;4978453;28;20515;-73
2023/05/14 09:02:29;;;;;;;9.77;8.87;;;;;;;11.78;69.98;96037.47;4979894;28;20451;-70
2023/05/14 09:04:56;;;;;;;10.27;8.90;;;;;;;11.63;69.83;96018.97;4981659;28;20272;-71
2023/05/14 09:07:22;;;;;;;9.53;8.57;;;;;;;11.55;69.90;96018.56;4981075;28;20437;-70
2023/05/14 09:09:48;;;;;;;9.77;8.70;;;;;;;11.70;69.98;96021.28;4969554;28;20899;-71
2023/05/14 09:12:14;;;;;;;10.60;8.53;;;;;;;11.69;69.85;96028.31;4979528;28;20211;-72
2023/05/14 09:14:40;;;;;;;10.20;8.27;;;;;;;11.81;69.48;96018.91;4980757;28;20527;-71
2023/05/14 09:17:06;;;;;;;9.87;8.87;;;;;;;11.95;69.24;96015.53;4980027;28;20205;-71
2023/05/14 09:19:32;;;;;;;13.73;9.20;;;;;;;12.03;69.27;96016.00;4983745;28;20184;-71
2023/05/14 09:21:58;;;;;;;10.73;9.60;;;;;;;12.06;68.96;96019.28;4978130;28;20460;-68
2023/05/14 09:24:29;;;;;;;11.27;10.17;;;;;;;12.27;68.59;96014.59;4978013;28;20243;-68
2023/05/14 09:26:57;;;;;;;15.97;9.90;;;;;;;12.32;67.52;96006.44;4972444;28;20602;-68
2023/05/14 09:29:27;;;;;;;13.40;9.07;;;;;;;12.34;67.76;96004.56;4980111;28;20443;-73
2023/05/14 09:31:53;;;;;;;10.07;9.17;;;;;;;12.35;67.65;95995.72;4983568;28;20444;-72
2023/05/14 09:34:38;;;;;;;9.73;8.77;;;;;;;12.34;67.76;95998.47;4974811;28;20436;-69
2023/05/14 09:37:08;;;;;;;13.30;9.27;;;;;;;12.37;67.68;95999.13;4974808;28;20799;-72
2023/05/14 09:39:37;;;;;;;9.60;8.60;;;;;;;12.41;68.54;96003.28;4975611;28;20478;-70
2023/05/14 09:42:03;;;;;;;9.53;8.63;;;;;;;12.86;66.57;95998.91;4976339;28;20459;-70
2023/05/14 09:44:29;;;;;;;9.80;8.80;;;;;;;13.21;65.17;96001.22;4983315;28;21089;-71
2023/05/14 09:46:55;;;;;;;9.37;8.47;;;;;;;13.14;65.16;96003.38;4968814;28;20436;-71
2023/05/14 09:49:21;;;;;;;9.47;8.57;;;;;;;13.05;64.95;96000.44;4970696;28;20248;-70
2023/05/14 09:51:48;;;;;;;8.77;7.87;;;;;;;13.02;65.23;95992.72;4976835;28;20432;-71
2023/05/14 09:54:14;;;;;;;9.20;8.03;;;;;;;13.14;65.49;95992.81;4981303;28;20710;-72
2023/05/14 09:56:39;;;;;;;8.87;7.97;;;;;;;13.20;65.39;95996.03;4982921;28;20554;-71
2023/05/14 09:59:05;;;;;;;8.40;7.60;;;;;;;13.25;65.24;95986.91;4984193;28;20180;-70
2023/05/14 10:01:31;;;;;;;8.87;7.50;;;;;;;13.09;65.74;95991.41;4987361;28;20223;-71
2023/05/14 10:03:57;;;;;;;14.07;9.13;;;;;;;13.43;64.66;95981.47;4985960;28;20204;-72
2023/05/14 10:06:36;;;;;;;12.07;8.47;;;;;;;13.46;64.19;95987.38;5014854;28;20795;-70
2023/05/14 10:09:04;;;;;;;10.30;7.60;;;;;;;13.19;65.01;95989.06;4985336;28;20964;-71
2023/05/14 10:11:36;;;;;;;9.00;8.10;;;;;;;13.36;64.61;95978.38;4984481;28;20436;-72
2023/05/14 10:14:11;;;;;;;8.30;7.50;;;;;;;13.41;64.46;95984.19;4982427;28;20432;-70
2023/05/14 10:16:42;;;;;;;8.47;7.67;;;;;;;13.41;64.40;95978.91;4976260;28;20520;-70
2023/05/14 10:19:09;;;;;;;8.13;7.43;;;;;;;13.41;63.96;95986.00;4977841;28;20885;-70
2023/05/14 10:21:37;;;;;;;8.70;7.47;;;;;;;13.33;64.27;95979.41;4976868;28;20542;-70
2023/05/14 10:24:04;;;;;;;13.70;7.80;;;;;;;13.36;64.73;95969.63;4982182;28;20910;-71
2023/05/14 10:26:31;;;;;;;7.73;7.03;;;;;;;13.65;63.79;95976.53;4983695;28;20429;-72
2023/05/14 10:28:57;;;;;;;7.33;6.63;;;;;;;13.70;62.89;95973.63;4984785;28;20548;-71
2023/05/14 10:31:45;;;;;;;9.00;7.37;;;;;;;13.73;63.46;95971.66;4980109;28;20428;-73
2023/05/14 10:34:37;;;;;;;9.17;7.57;;;;;;;13.83;63.26;95969.28;4982535;28;20527;-73
2023/05/14 10:37:10;;;;;;;10.60;7.60;;;;;;;13.80;63.81;95968.63;4982956;28;20460;-71
2023/05/14 10:39:40;;;;;;;9.53;8.53;;;;;;;14.07;63.11;95961.56;4986988;28;20448;-71
2023/05/14 10:42:07;;;;;;;9.90;6.57;;;;;;;13.58;64.70;95961.22;4973359;28;20572;-70
2023/05/14 10:44:34;;;;;;;14.97;6.87;;;;;;;14.15;63.18;95951.38;4983758;28;20440;-72
2023/05/14 10:47:01;;;;;;;13.90;7.60;;;;;;;14.51;61.56;95944.59;4971047;28;20870;-70
2023/05/14 10:49:26;;;;;;;7.50;6.80;;;;;;;14.82;61.31;95946.03;4985456;28;20435;-72
2023/05/14 10:51:53;;;;;;;10.53;6.77;;;;;;;15.00;60.08;95943.09;4982436;28;20431;-71
2023/05/14 10:54:18;;;;;;;7.03;6.40;;;;;;;14.93;59.48;95942.69;4974767;28;20209;-73
2023/05/14 10:56:47;;;;;;;9.63;5.93;;;;;;;15.12;59.33;95929.06;4977794;28;20459;-72
2023/05/14 10:59:16;;;;;;;6.80;6.20;;;;;;;15.20;58.32;95932.00;4977363;28;20217;-70
2023/05/14 11:01:41;;;;;;;8.40;5.87;;;;;;;15.32;57.90;95930.28;4977881;28;20471;-71
2023/05/14 11:04:07;;;;;;;8.63;7.93;;;;;;;15.25;58.36;95926.38;4984007;28;20773;-72
2023/05/14 11:06:36;;;;;;;7.10;6.40;;;;;;;15.07;59.26;95930.31;4974973;28;20208;-72
2023/05/14 11:09:02;;;;;;;7.27;6.60;;;;;;;14.95;59.51;95924.94;4968797;28;20937;-70
2023/05/14 11:11:28;;;;;;;7.40;6.70;;;;;;;14.99;59.76;95926.38;4971098;28;20470;-71
2023/05/14 11:13:54;;;;;;;6.87;6.10;;;;;;;15.10;59.39;95927.47;4977857;28;20212;-69
2023/05/14 11:16:22;;;;;;;7.00;6.30;;;;;;;15.22;58.97;95922.16;4976925;28;20572;-71
2023/05/14 11:18:52;;;;;;;15.17;7.13;;;;;;;15.15;58.34;95926.19;4974951;28;20431;-72
2023/05/14 11:21:17;;;;;;;15.33;8.77;;;;;;;15.01;59.62;95927.13;4972923;28;20502;-71